sensor_id;sensor_type;location;lat;lon;timestamp;pressure;altitude;pressure_sealevel;temperature;humidity
58092;BME280;43896;48.178;11.578;2023-02-02T00:01:36;96258.81;;;5.39;58.51
58092;BME280;43896;48.178;11.578;2023-02-02T00:04:02;96204.13;;;5.15;58.10
58092;BME280;43896;48.178;11.578;2023-02-02T00:06:29;96219.06;;;5.13;58.32
58092;BME280;43896;48.178;11.578;2023-02-02T00:08:56;96261.44;;;5.50;57.53
58092;BME280;43896;48.178;11.578;2023-02-02T00:11:23;96244.31;;;5.23;57.82
58092;BME280;43896;48.178;11.578;2023-02-02T00:13:48;96213.63;;;5.27;57.83
58092;BME280;43896;48.178;11.578;2023-02-02T00:16:32;96238.75;;;5.39;58.36
58092;BME280;43896;48.178;11.578;2023-02-02T00:19:01;96244.13;;;5.49;58.78
58092;BME280;43896;48.178;11.578;2023-02-02T00:21:27;96261.19;;;5.53;58.42
58092;BME280;43896;48.178;11.578;2023-02-02T00:23:53;96209.34;;;5.15;58.33
58092;BME280;43896;48.178;11.578;2023-02-02T00:26:19;96258.59;;;5.42;58.84
58092;BME280;43896;48.178;11.578;2023-02-02T00:28:45;96256.22;;;5.50;58.50
58092;BME280;43896;48.178;11.578;2023-02-02T00:31:10;96241.13;;;5.31;58.89
58092;BME280;43896;48.178;11.578;2023-02-02T00:33:36;96199.13;;;5.12;58.90
58092;BME280;43896;48.178;11.578;2023-02-02T00:36:01;96198.69;;;5.18;59.58
58092;BME280;43896;48.178;11.578;2023-02-02T00:38:27;96237.09;;;5.27;59.35
58092;BME280;43896;48.178;11.578;2023-02-02T00:40:52;96215.38;;;5.15;59.91
58092;BME280;43896;48.178;11.578;2023-02-02T00:43:17;96221.44;;;5.27;60.21
58092;BME280;43896;48.178;11.578;2023-02-02T00:45:43;96214.91;;;5.21;59.83
58092;BME280;43896;48.178;11.578;2023-02-02T00:48:08;96183.47;;;5.00;59.27
58092;BME280;43896;48.178;11.578;2023-02-02T00:50:35;96234.63;;;5.37;59.88
58092;BME280;43896;48.178;11.578;2023-02-02T00:53:01;96185.72;;;5.05;60.39
58092;BME280;43896;48.178;11.578;2023-02-02T00:55:27;96212.06;;;5.13;60.62
58092;BME280;43896;48.178;11.578;2023-02-02T00:57:52;96193.56;;;4.69;61.35
58092;BME280;43896;48.178;11.578;2023-02-02T01:00:22;96251.50;;;5.08;61.54
58092;BME280;43896;48.178;11.578;2023-02-02T01:02:49;96213.78;;;5.01;61.68
58092;BME280;43896;48.178;11.578;2023-02-02T01:05:15;96254.94;;;5.09;61.52
58092;BME280;43896;48.178;11.578;2023-02-02T01:07:41;96209.38;;;4.91;61.67
58092;BME280;43896;48.178;11.578;2023-02-02T01:10:10;96143.72;;;4.39;62.23
58092;BME280;43896;48.178;11.578;2023-02-02T01:12:36;96196.41;;;4.78;62.67
58092;BME280;43896;48.178;11.578;2023-02-02T01:15:02;96235.13;;;4.95;62.21
58092;BME280;43896;48.178;11.578;2023-02-02T01:17:27;96231.09;;;5.02;62.05
58092;BME280;43896;48.178;11.578;2023-02-02T01:19:53;96234.31;;;5.06;62.16
58092;BME280;43896;48.178;11.578;2023-02-02T01:22:18;96227.41;;;4.94;61.94
58092;BME280;43896;48.178;11.578;2023-02-02T01:24:44;96164.13;;;4.80;61.88
58092;BME280;43896;48.178;11.578;2023-02-02T01:27:09;96151.88;;;4.69;61.65
58092;BME280;43896;48.178;11.578;2023-02-02T01:29:34;96211.03;;;4.92;61.73
58092;BME280;43896;48.178;11.578;2023-02-02T01:32:00;96215.09;;;5.07;61.72
58092;BME280;43896;48.178;11.578;2023-02-02T01:34:25;96182.84;;;4.85;62.11
58092;BME280;43896;48.178;11.578;2023-02-02T01:36:50;96173.94;;;4.88;61.63
58092;BME280;43896;48.178;11.578;2023-02-02T01:39:16;96188.16;;;4.84;62.25
58092;BME280;43896;48.178;11.578;2023-02-02T01:41:41;96144.25;;;4.55;62.31
58092;BME280;43896;48.178;11.578;2023-02-02T01:47:11;96225.56;;;5.18;61.57
58092;BME280;43896;48.178;11.578;2023-02-02T01:49:38;96201.69;;;4.89;60.80
58092;BME280;43896;48.178;11.578;2023-02-02T01:52:04;96161.47;;;4.69;61.12
58092;BME280;43896;48.178;11.578;2023-02-02T01:54:34;96217.69;;;4.96;61.83
58092;BME280;43896;48.178;11.578;2023-02-02T01:57:03;96155.53;;;4.56;61.44
58092;BME280;43896;48.178;11.578;2023-02-02T01:59:31;96177.34;;;4.66;61.67
58092;BME280;43896;48.178;11.578;2023-02-02T02:01:57;96188.00;;;4.74;60.90
58092;BME280;43896;48.178;11.578;2023-02-02T02:04:23;96171.22;;;4.89;60.66
58092;BME280;43896;48.178;11.578;2023-02-02T02:06:51;96158.09;;;4.91;60.50
58092;BME280;43896;48.178;11.578;2023-02-02T02:09:18;96187.84;;;5.00;60.07
58092;BME280;43896;48.178;11.578;2023-02-02T02:11:44;96210.75;;;5.19;60.54
58092;BME280;43896;48.178;11.578;2023-02-02T02:14:10;96123.34;;;4.68;60.43
58092;BME280;43896;48.178;11.578;2023-02-02T02:17:23;96223.72;;;4.96;61.21
58092;BME280;43896;48.178;11.578;2023-02-02T02:20:28;96182.38;;;4.92;60.95
58092;BME280;43896;48.178;11.578;2023-02-02T02:23:55;96220.56;;;5.04;61.57
58092;BME280;43896;48.178;11.578;2023-02-02T02:27:06;96211.00;;;5.16;60.71
58092;BME280;43896;48.178;11.578;2023-02-02T02:29:58;96217.31;;;5.24;61.27
58092;BME280;43896;48.178;11.578;2023-02-02T02:32:54;96219.53;;;5.18;60.74
58092;BME280;43896;48.178;11.578;2023-02-02T02:35:31;96219.78;;;5.26;60.69
58092;BME280;43896;48.178;11.578;2023-02-02T02:38:08;96220.34;;;5.18;60.93
58092;BME280;43896;48.178;11.578;2023-02-02T02:40:50;96164.47;;;4.51;61.58
58092;BME280;43896;48.178;11.578;2023-02-02T02:43:21;96218.94;;;5.14;60.72
58092;BME280;43896;48.178;11.578;2023-02-02T02:45:48;96177.13;;;4.80;60.57
58092;BME280;43896;48.178;11.578;2023-02-02T02:48:15;96176.34;;;4.91;60.86
58092;BME280;43896;48.178;11.578;2023-02-02T02:50:40;96152.88;;;4.91;60.31
58092;BME280;43896;48.178;11.578;2023-02-02T02:53:10;96187.28;;;5.07;59.78
58092;BME280;43896;48.178;11.578;2023-02-02T02:55:58;96181.69;;;5.12;60.02
58092;BME280;43896;48.178;11.578;2023-02-02T02:58:45;96211.13;;;5.25;60.79
58092;BME280;43896;48.178;11.578;2023-02-02T03:01:19;96199.72;;;5.15;60.70
58092;BME280;43896;48.178;11.578;2023-02-02T03:04:08;96216.06;;;5.17;60.47
58092;BME280;43896;48.178;11.578;2023-02-02T03:06:43;96132.69;;;4.70;61.11
58092;BME280;43896;48.178;11.578;2023-02-02T03:09:14;96197.19;;;4.91;61.46
58092;BME280;43896;48.178;11.578;2023-02-02T03:11:43;96217.38;;;5.00;61.59
58092;BME280;43896;48.178;11.578;2023-02-02T03:14:09;96123.78;;;4.62;60.85
58092;BME280;43896;48.178;11.578;2023-02-02T03:16:37;96137.41;;;4.65;61.22
58092;BME280;43896;48.178;11.578;2023-02-02T03:19:04;96183.47;;;5.00;62.05
58092;BME280;43896;48.178;11.578;2023-02-02T03:21:31;96138.50;;;4.74;62.44
58092;BME280;43896;48.178;11.578;2023-02-02T03:23:57;96197.81;;;5.17;63.06
58092;BME280;43896;48.178;11.578;2023-02-02T03:26:22;96153.41;;;4.61;64.11
58092;BME280;43896;48.178;11.578;2023-02-02T03:28:49;96166.75;;;4.56;63.54
58092;BME280;43896;48.178;11.578;2023-02-02T03:31:15;96228.63;;;5.01;63.64
58092;BME280;43896;48.178;11.578;2023-02-02T03:33:40;96221.22;;;4.83;64.37
58092;BME280;43896;48.178;11.578;2023-02-02T03:36:06;96208.84;;;4.74;64.19
58092;BME280;43896;48.178;11.578;2023-02-02T03:38:32;96216.34;;;4.79;65.22
58092;BME280;43896;48.178;11.578;2023-02-02T03:40:57;96183.91;;;4.59;64.77
58092;BME280;43896;48.178;11.578;2023-02-02T03:43:23;96244.69;;;4.95;65.62
58092;BME280;43896;48.178;11.578;2023-02-02T03:45:57;96195.31;;;4.69;65.60
58092;BME280;43896;48.178;11.578;2023-02-02T03:48:23;96226.81;;;4.90;65.40
58092;BME280;43896;48.178;11.578;2023-02-02T03:50:48;96218.34;;;4.86;65.32
58092;BME280;43896;48.178;11.578;2023-02-02T03:53:13;96165.94;;;4.56;64.29
58092;BME280;43896;48.178;11.578;2023-02-02T03:55:39;96210.41;;;4.77;65.35
58092;BME280;43896;48.178;11.578;2023-02-02T03:58:05;96181.81;;;4.64;64.62
58092;BME280;43896;48.178;11.578;2023-02-02T04:00:30;96178.75;;;4.70;64.13
58092;BME280;43896;48.178;11.578;2023-02-02T04:02:56;96192.78;;;4.80;64.00
58092;BME280;43896;48.178;11.578;2023-02-02T04:05:21;96151.19;;;4.43;64.46
58092;BME280;43896;48.178;11.578;2023-02-02T04:07:47;96156.66;;;4.51;64.62
58092;BME280;43896;48.178;11.578;2023-02-02T04:10:13;96176.16;;;4.70;64.28
58092;BME280;43896;48.178;11.578;2023-02-02T04:12:38;96145.38;;;4.40;64.96
58092;BME280;43896;48.178;11.578;2023-02-02T04:15:04;96149.56;;;4.54;65.36
58092;BME280;43896;48.178;11.578;2023-02-02T04:17:30;96143.59;;;4.64;64.46
58092;BME280;43896;48.178;11.578;2023-02-02T04:19:55;96245.19;;;5.00;64.65
58092;BME280;43896;48.178;11.578;2023-02-02T04:22:23;96170.91;;;4.59;64.66
58092;BME280;43896;48.178;11.578;2023-02-02T04:24:48;96234.75;;;4.88;65.44
58092;BME280;43896;48.178;11.578;2023-02-02T04:27:14;96159.59;;;4.71;65.24
58092;BME280;43896;48.178;11.578;2023-02-02T04:29:39;96181.88;;;4.75;64.40
58092;BME280;43896;48.178;11.578;2023-02-02T04:32:04;96152.25;;;4.41;65.61
58092;BME280;43896;48.178;11.578;2023-02-02T04:34:30;96247.34;;;5.06;64.97
58092;BME280;43896;48.178;11.578;2023-02-02T04:36:56;96242.56;;;5.00;65.92
58092;BME280;43896;48.178;11.578;2023-02-02T04:39:21;96148.63;;;4.55;66.35
58092;BME280;43896;48.178;11.578;2023-02-02T04:41:47;96176.69;;;4.51;67.09
58092;BME280;43896;48.178;11.578;2023-02-02T04:44:13;96226.16;;;4.75;66.83
58092;BME280;43896;48.178;11.578;2023-02-02T04:46:41;96227.84;;;4.87;66.53
58092;BME280;43896;48.178;11.578;2023-02-02T04:49:08;96229.53;;;5.00;65.68
58092;BME280;43896;48.178;11.578;2023-02-02T04:51:34;96151.84;;;4.58;64.90
58092;BME280;43896;48.178;11.578;2023-02-02T04:53:59;96231.72;;;5.06;64.82
58092;BME280;43896;48.178;11.578;2023-02-02T04:56:24;96219.16;;;5.22;64.11
58092;BME280;43896;48.178;11.578;2023-02-02T04:58:52;96214.88;;;5.10;64.36
58092;BME280;43896;48.178;11.578;2023-02-02T05:01:19;96212.75;;;5.15;63.77
58092;BME280;43896;48.178;11.578;2023-02-02T05:03:45;96215.00;;;5.08;64.70
58092;BME280;43896;48.178;11.578;2023-02-02T05:06:11;96207.38;;;4.94;64.24
58092;BME280;43896;48.178;11.578;2023-02-02T05:08:37;96165.47;;;4.62;64.44
58092;BME280;43896;48.178;11.578;2023-02-02T05:11:13;96201.59;;;5.02;63.87
58092;BME280;43896;48.178;11.578;2023-02-02T05:13:39;96233.44;;;4.94;63.99
58092;BME280;43896;48.178;11.578;2023-02-02T05:16:08;96248.41;;;5.03;64.93
58092;BME280;43896;48.178;11.578;2023-02-02T05:18:34;96216.72;;;4.97;64.39
58092;BME280;43896;48.178;11.578;2023-02-02T05:21:00;96233.97;;;5.11;64.10
58092;BME280;43896;48.178;11.578;2023-02-02T05:23:26;96228.50;;;5.14;64.12
58092;BME280;43896;48.178;11.578;2023-02-02T05:25:53;96227.16;;;4.97;63.93
58092;BME280;43896;48.178;11.578;2023-02-02T05:28:19;96247.94;;;5.10;64.94
58092;BME280;43896;48.178;11.578;2023-02-02T05:30:44;96205.97;;;5.01;64.61
58092;BME280;43896;48.178;11.578;2023-02-02T05:33:10;96191.28;;;4.65;65.19
58092;BME280;43896;48.178;11.578;2023-02-02T05:35:36;96206.50;;;4.71;65.77
58092;BME280;43896;48.178;11.578;2023-02-02T05:38:04;96165.19;;;4.54;65.53
58092;BME280;43896;48.178;11.578;2023-02-02T05:40:30;96206.69;;;5.03;64.91
58092;BME280;43896;48.178;11.578;2023-02-02T05:42:55;96201.56;;;4.91;64.87
58092;BME280;43896;48.178;11.578;2023-02-02T05:45:21;96164.81;;;4.71;64.18
58092;BME280;43896;48.178;11.578;2023-02-02T05:47:46;96266.53;;;5.05;65.27
58092;BME280;43896;48.178;11.578;2023-02-02T05:50:12;96199.88;;;4.78;65.57
58092;BME280;43896;48.178;11.578;2023-02-02T05:52:38;96260.56;;;5.27;65.13
58092;BME280;43896;48.178;11.578;2023-02-02T05:55:05;96219.22;;;4.87;65.67
58092;BME280;43896;48.178;11.578;2023-02-02T05:57:31;96227.66;;;5.02;65.11
58092;BME280;43896;48.178;11.578;2023-02-02T05:59:56;96183.22;;;4.92;65.22
58092;BME280;43896;48.178;11.578;2023-02-02T06:02:22;96167.91;;;4.76;65.27
58092;BME280;43896;48.178;11.578;2023-02-02T06:04:47;96253.38;;;5.06;65.63
58092;BME280;43896;48.178;11.578;2023-02-02T06:07:12;96245.69;;;5.05;64.88
58092;BME280;43896;48.178;11.578;2023-02-02T06:09:38;96237.97;;;5.03;65.14
58092;BME280;43896;48.178;11.578;2023-02-02T06:12:04;96270.16;;;5.26;64.31
58092;BME280;43896;48.178;11.578;2023-02-02T06:14:29;96268.03;;;5.32;63.99
58092;BME280;43896;48.178;11.578;2023-02-02T06:16:55;96247.56;;;5.38;64.23
58092;BME280;43896;48.178;11.578;2023-02-02T06:19:20;96256.53;;;5.34;65.09
58092;BME280;43896;48.178;11.578;2023-02-02T06:21:46;96270.44;;;5.35;64.80
58092;BME280;43896;48.178;11.578;2023-02-02T06:24:12;96246.47;;;5.30;64.40
58092;BME280;43896;48.178;11.578;2023-02-02T06:26:37;96238.66;;;5.30;63.93
58092;BME280;43896;48.178;11.578;2023-02-02T06:29:02;96252.03;;;5.36;63.96
58092;BME280;43896;48.178;11.578;2023-02-02T06:31:28;96256.53;;;5.23;63.88
58092;BME280;43896;48.178;11.578;2023-02-02T06:33:56;96261.84;;;5.21;64.70
58092;BME280;43896;48.178;11.578;2023-02-02T06:36:23;96234.91;;;5.10;64.95
58092;BME280;43896;48.178;11.578;2023-02-02T06:38:50;96266.56;;;5.16;64.73
58092;BME280;43896;48.178;11.578;2023-02-02T06:41:16;96248.47;;;4.91;65.40
58092;BME280;43896;48.178;11.578;2023-02-02T06:43:42;96248.56;;;5.13;64.67
58092;BME280;43896;48.178;11.578;2023-02-02T06:46:07;96260.19;;;5.20;64.50
58092;BME280;43896;48.178;11.578;2023-02-02T06:48:32;96264.25;;;5.24;64.27
58092;BME280;43896;48.178;11.578;2023-02-02T06:50:58;96292.22;;;5.34;63.48
58092;BME280;43896;48.178;11.578;2023-02-02T06:53:24;96288.16;;;5.18;64.21
58092;BME280;43896;48.178;11.578;2023-02-02T06:55:59;96296.34;;;5.25;64.16
58092;BME280;43896;48.178;11.578;2023-02-02T06:58:25;96294.94;;;5.21;63.85
58092;BME280;43896;48.178;11.578;2023-02-02T07:00:51;96294.22;;;5.30;64.28
58092;BME280;43896;48.178;11.578;2023-02-02T07:03:17;96286.66;;;5.03;64.49
58092;BME280;43896;48.178;11.578;2023-02-02T07:05:42;96289.00;;;5.30;64.15
58092;BME280;43896;48.178;11.578;2023-02-02T07:08:08;96291.25;;;5.23;64.56
58092;BME280;43896;48.178;11.578;2023-02-02T07:10:36;96314.22;;;5.18;65.04
58092;BME280;43896;48.178;11.578;2023-02-02T07:13:02;96308.13;;;5.06;65.63
58092;BME280;43896;48.178;11.578;2023-02-02T07:15:27;96305.91;;;5.13;65.55
58092;BME280;43896;48.178;11.578;2023-02-02T07:17:53;96300.84;;;5.23;64.74
58092;BME280;43896;48.178;11.578;2023-02-02T07:20:18;96315.13;;;5.41;64.28
58092;BME280;43896;48.178;11.578;2023-02-02T07:22:44;96307.97;;;5.32;64.61
58092;BME280;43896;48.178;11.578;2023-02-02T07:25:09;96299.50;;;5.17;64.73
58092;BME280;43896;48.178;11.578;2023-02-02T07:27:34;96320.31;;;5.30;64.73
58092;BME280;43896;48.178;11.578;2023-02-02T07:29:59;96317.53;;;5.20;64.68
58092;BME280;43896;48.178;11.578;2023-02-02T07:32:25;96322.13;;;5.41;64.37
58092;BME280;43896;48.178;11.578;2023-02-02T07:34:50;96329.31;;;5.26;64.48
58092;BME280;43896;48.178;11.578;2023-02-02T07:37:15;96330.75;;;5.30;64.89
58092;BME280;43896;48.178;11.578;2023-02-02T07:39:41;96330.41;;;5.35;64.62
58092;BME280;43896;48.178;11.578;2023-02-02T07:42:10;96328.97;;;5.31;65.30
58092;BME280;43896;48.178;11.578;2023-02-02T07:44:35;96340.09;;;5.33;64.98
58092;BME280;43896;48.178;11.578;2023-02-02T07:47:00;96319.06;;;5.12;65.74
58092;BME280;43896;48.178;11.578;2023-02-02T07:49:26;96358.59;;;5.30;65.78
58092;BME280;43896;48.178;11.578;2023-02-02T07:51:51;96364.94;;;5.14;66.87
58092;BME280;43896;48.178;11.578;2023-02-02T07:54:16;96351.53;;;5.19;66.38
58092;BME280;43896;48.178;11.578;2023-02-02T07:56:42;96354.66;;;5.24;66.01
58092;BME280;43896;48.178;11.578;2023-02-02T07:59:09;96345.81;;;5.38;66.06
58092;BME280;43896;48.178;11.578;2023-02-02T08:01:34;96352.78;;;5.26;66.20
58092;BME280;43896;48.178;11.578;2023-02-02T08:04:00;96348.41;;;5.26;65.97
58092;BME280;43896;48.178;11.578;2023-02-02T08:06:31;96346.94;;;5.22;65.98
58092;BME280;43896;48.178;11.578;2023-02-02T08:08:58;96354.59;;;5.37;66.34
58092;BME280;43896;48.178;11.578;2023-02-02T08:11:25;96363.22;;;5.26;66.99
58092;BME280;43896;48.178;11.578;2023-02-02T08:13:53;96348.19;;;5.30;66.29
58092;BME280;43896;48.178;11.578;2023-02-02T08:16:19;96365.25;;;5.34;66.10
58092;BME280;43896;48.178;11.578;2023-02-02T08:18:46;96362.66;;;5.34;66.17
58092;BME280;43896;48.178;11.578;2023-02-02T08:21:12;96373.84;;;5.47;65.47
58092;BME280;43896;48.178;11.578;2023-02-02T08:23:38;96384.78;;;5.28;65.87
58092;BME280;43896;48.178;11.578;2023-02-02T08:28:39;96385.13;;;5.23;66.32
58092;BME280;43896;48.178;11.578;2023-02-02T08:31:06;96394.81;;;5.45;66.00
58092;BME280;43896;48.178;11.578;2023-02-02T08:33:31;96386.50;;;5.40;65.62
58092;BME280;43896;48.178;11.578;2023-02-02T08:35:57;96403.75;;;5.30;66.31
58092;BME280;43896;48.178;11.578;2023-02-02T08:38:23;96405.25;;;5.21;66.81
58092;BME280;43896;48.178;11.578;2023-02-02T08:40:48;96395.66;;;5.46;65.94
58092;BME280;43896;48.178;11.578;2023-02-02T08:43:14;96386.78;;;5.49;65.60
58092;BME280;43896;48.178;11.578;2023-02-02T08:45:41;96378.84;;;5.50;66.34
58092;BME280;43896;48.178;11.578;2023-02-02T08:48:07;96392.94;;;5.48;66.67
58092;BME280;43896;48.178;11.578;2023-02-02T08:50:32;96383.34;;;5.24;67.74
58092;BME280;43896;48.178;11.578;2023-02-02T08:52:57;96401.59;;;5.24;68.00
58092;BME280;43896;48.178;11.578;2023-02-02T08:55:23;96402.44;;;5.24;68.32
58092;BME280;43896;48.178;11.578;2023-02-02T08:57:48;96417.63;;;5.31;68.78
58092;BME280;43896;48.178;11.578;2023-02-02T09:00:14;96419.41;;;5.30;68.30
58092;BME280;43896;48.178;11.578;2023-02-02T09:02:39;96408.41;;;5.38;68.68
58092;BME280;43896;48.178;11.578;2023-02-02T09:05:05;96414.09;;;5.32;68.68
58092;BME280;43896;48.178;11.578;2023-02-02T09:07:31;96413.03;;;5.34;68.70
58092;BME280;43896;48.178;11.578;2023-02-02T09:09:56;96409.66;;;5.21;69.00
58092;BME280;43896;48.178;11.578;2023-02-02T09:12:22;96410.91;;;5.39;68.01
58092;BME280;43896;48.178;11.578;2023-02-02T09:14:48;96382.94;;;5.41;67.33
58092;BME280;43896;48.178;11.578;2023-02-02T09:17:13;96395.13;;;5.30;68.16
58092;BME280;43896;48.178;11.578;2023-02-02T09:19:38;96419.94;;;5.22;68.00
58092;BME280;43896;48.178;11.578;2023-02-02T09:22:04;96433.72;;;5.24;68.46
58092;BME280;43896;48.178;11.578;2023-02-02T09:24:29;96416.19;;;5.26;68.30
58092;BME280;43896;48.178;11.578;2023-02-02T09:26:54;96415.72;;;5.08;68.72
58092;BME280;43896;48.178;11.578;2023-02-02T09:29:20;96416.47;;;5.35;68.50
58092;BME280;43896;48.178;11.578;2023-02-02T09:31:45;96388.22;;;5.29;68.17
58092;BME280;43896;48.178;11.578;2023-02-02T09:34:12;96424.44;;;5.44;67.59
58092;BME280;43896;48.178;11.578;2023-02-02T09:36:39;96425.94;;;5.36;68.02
58092;BME280;43896;48.178;11.578;2023-02-02T09:39:05;96429.75;;;5.32;67.78
58092;BME280;43896;48.178;11.578;2023-02-02T09:49:59;96432.16;;;5.46;68.19
58092;BME280;43896;48.178;11.578;2023-02-02T09:55:15;96422.63;;;5.34;68.38
58092;BME280;43896;48.178;11.578;2023-02-02T09:57:48;96411.31;;;5.22;68.75
58092;BME280;43896;48.178;11.578;2023-02-02T10:00:28;96428.13;;;5.42;68.62
58092;BME280;43896;48.178;11.578;2023-02-02T10:06:05;96424.81;;;5.40;68.26
58092;BME280;43896;48.178;11.578;2023-02-02T10:08:40;96397.09;;;5.50;68.17
58092;BME280;43896;48.178;11.578;2023-02-02T10:11:31;96423.06;;;5.52;67.94
58092;BME280;43896;48.178;11.578;2023-02-02T10:14:14;96403.97;;;5.51;68.28
58092;BME280;43896;48.178;11.578;2023-02-02T10:16:42;96404.78;;;5.52;67.58
58092;BME280;43896;48.178;11.578;2023-02-02T10:19:10;96414.44;;;5.62;67.63
58092;BME280;43896;48.178;11.578;2023-02-02T10:21:43;96397.53;;;5.44;67.69
58092;BME280;43896;48.178;11.578;2023-02-02T10:24:24;96420.38;;;5.64;67.78
58092;BME280;43896;48.178;11.578;2023-02-02T10:26:55;96422.78;;;5.79;67.08
58092;BME280;43896;48.178;11.578;2023-02-02T10:32:02;96412.22;;;5.69;66.63
58092;BME280;43896;48.178;11.578;2023-02-02T10:40:14;96408.88;;;5.67;67.03
58092;BME280;43896;48.178;11.578;2023-02-02T10:43:06;96463.19;;;5.62;67.00
58092;BME280;43896;48.178;11.578;2023-02-02T10:45:56;96435.09;;;5.41;67.86
58092;BME280;43896;48.178;11.578;2023-02-02T10:48:28;96427.13;;;5.32;68.73
58092;BME280;43896;48.178;11.578;2023-02-02T10:50:58;96407.88;;;5.45;68.55
58092;BME280;43896;48.178;11.578;2023-02-02T10:53:27;96404.38;;;5.34;68.06
58092;BME280;43896;48.178;11.578;2023-02-02T10:56:01;96411.56;;;5.54;67.34
58092;BME280;43896;48.178;11.578;2023-02-02T10:59:02;96409.00;;;5.66;67.13
58092;BME280;43896;48.178;11.578;2023-02-02T11:01:29;96408.56;;;5.48;67.29
58092;BME280;43896;48.178;11.578;2023-02-02T11:03:55;96424.19;;;5.60;67.72
58092;BME280;43896;48.178;11.578;2023-02-02T11:06:39;96400.53;;;5.51;67.70
58092;BME280;43896;48.178;11.578;2023-02-02T11:09:14;96427.03;;;5.69;67.75
58092;BME280;43896;48.178;11.578;2023-02-02T11:11:42;96409.19;;;5.51;68.97
58092;BME280;43896;48.178;11.578;2023-02-02T11:14:15;96417.31;;;5.71;67.78
58092;BME280;43896;48.178;11.578;2023-02-02T11:16:44;96397.84;;;5.63;67.90
58092;BME280;43896;48.178;11.578;2023-02-02T11:19:29;96425.69;;;5.87;68.46
58092;BME280;43896;48.178;11.578;2023-02-02T11:21:56;96412.88;;;5.60;68.46
58092;BME280;43896;48.178;11.578;2023-02-02T11:24:30;96416.16;;;5.75;68.69
58092;BME280;43896;48.178;11.578;2023-02-02T11:27:13;96417.03;;;5.87;67.83
58092;BME280;43896;48.178;11.578;2023-02-02T11:37:35;96423.78;;;5.89;68.45
58092;BME280;43896;48.178;11.578;2023-02-02T11:40:26;96412.78;;;5.61;68.98
58092;BME280;43896;48.178;11.578;2023-02-02T11:42:54;96418.50;;;5.67;68.73
58092;BME280;43896;48.178;11.578;2023-02-02T11:45:36;96401.53;;;5.61;68.91
58092;BME280;43896;48.178;11.578;2023-02-02T11:48:13;96405.44;;;5.67;69.38
58092;BME280;43896;48.178;11.578;2023-02-02T11:50:47;96409.84;;;5.66;69.30
58092;BME280;43896;48.178;11.578;2023-02-02T11:55:51;96417.94;;;5.74;69.71
58092;BME280;43896;48.178;11.578;2023-02-02T11:58:22;96418.16;;;5.71;69.41
58092;BME280;43896;48.178;11.578;2023-02-02T12:00:51;96402.28;;;5.74;69.13
58092;BME280;43896;48.178;11.578;2023-02-02T12:03:26;96403.75;;;5.90;69.06
58092;BME280;43896;48.178;11.578;2023-02-02T12:05:52;96403.81;;;5.66;69.27
58092;BME280;43896;48.178;11.578;2023-02-02T12:08:17;96438.22;;;5.47;69.81
58092;BME280;43896;48.178;11.578;2023-02-02T12:10:59;96420.00;;;5.58;69.64
58092;BME280;43896;48.178;11.578;2023-02-02T12:16:21;96431.63;;;5.54;70.59
58092;BME280;43896;48.178;11.578;2023-02-02T12:21:55;96418.31;;;5.57;70.76
58092;BME280;43896;48.178;11.578;2023-02-02T12:24:30;96409.19;;;5.51;70.66
58092;BME280;43896;48.178;11.578;2023-02-02T12:51:22;96420.44;;;5.52;71.28
58092;BME280;43896;48.178;11.578;2023-02-02T12:54:46;96427.06;;;5.44;71.95
58092;BME280;43896;48.178;11.578;2023-02-02T12:57:08;96410.38;;;5.47;71.42
58092;BME280;43896;48.178;11.578;2023-02-02T12:59:56;96424.00;;;5.51;71.75
58092;BME280;43896;48.178;11.578;2023-02-02T13:02:35;96407.47;;;5.39;71.86
58092;BME280;43896;48.178;11.578;2023-02-02T13:08:27;96431.13;;;5.49;71.69
58092;BME280;43896;48.178;11.578;2023-02-02T13:11:00;96433.66;;;5.37;72.83
58092;BME280;43896;48.178;11.578;2023-02-02T13:13:35;96418.03;;;5.37;72.08
58092;BME280;43896;48.178;11.578;2023-02-02T13:16:07;96439.09;;;5.34;72.78
58092;BME280;43896;48.178;11.578;2023-02-02T13:18:51;96442.19;;;5.15;73.65
58092;BME280;43896;48.178;11.578;2023-02-02T13:21:21;96453.22;;;5.32;73.72
58092;BME280;43896;48.178;11.578;2023-02-02T13:23:50;96441.81;;;5.33;73.30
58092;BME280;43896;48.178;11.578;2023-02-02T13:26:19;96467.69;;;5.36;73.07
58092;BME280;43896;48.178;11.578;2023-02-02T13:28:56;96443.31;;;5.48;72.52
58092;BME280;43896;48.178;11.578;2023-02-02T13:34:25;96479.34;;;5.43;73.35
58092;BME280;43896;48.178;11.578;2023-02-02T13:39:44;96471.75;;;5.40;73.02
58092;BME280;43896;48.178;11.578;2023-02-02T13:42:23;96485.22;;;5.34;73.03
58092;BME280;43896;48.178;11.578;2023-02-02T13:44:55;96470.25;;;5.24;73.90
58092;BME280;43896;48.178;11.578;2023-02-02T13:47:28;96459.47;;;5.29;73.94
58092;BME280;43896;48.178;11.578;2023-02-02T13:49:59;96481.38;;;5.26;73.92
58092;BME280;43896;48.178;11.578;2023-02-02T14:00:45;96472.75;;;5.26;73.74
58092;BME280;43896;48.178;11.578;2023-02-02T14:03:34;96489.22;;;5.26;73.93
58092;BME280;43896;48.178;11.578;2023-02-02T14:08:29;96492.44;;;5.30;74.00
58092;BME280;43896;48.178;11.578;2023-02-02T14:10:57;96479.31;;;5.19;75.38
58092;BME280;43896;48.178;11.578;2023-02-02T14:13:45;96501.25;;;5.16;75.25
58092;BME280;43896;48.178;11.578;2023-02-02T14:19:00;96507.91;;;5.44;73.87
58092;BME280;43896;48.178;11.578;2023-02-02T14:24:01;96507.75;;;5.35;73.47
58092;BME280;43896;48.178;11.578;2023-02-02T14:26:44;96502.25;;;5.26;73.89
58092;BME280;43896;48.178;11.578;2023-02-02T14:32:01;96518.00;;;5.25;73.67
58092;BME280;43896;48.178;11.578;2023-02-02T14:39:36;96520.22;;;5.18;74.71
58092;BME280;43896;48.178;11.578;2023-02-02T14:45:24;96500.53;;;5.01;75.09
58092;BME280;43896;48.178;11.578;2023-02-02T14:47:52;96523.00;;;5.28;74.28
58092;BME280;43896;48.178;11.578;2023-02-02T14:50:43;96514.69;;;5.23;75.35
58092;BME280;43896;48.178;11.578;2023-02-02T15:06:31;96520.81;;;5.22;74.52
58092;BME280;43896;48.178;11.578;2023-02-02T15:14:35;96532.88;;;5.36;74.67
58092;BME280;43896;48.178;11.578;2023-02-02T15:20:25;96560.19;;;5.43;73.99